createdAt,value
2023-05-05T00:01:32.834Z,100889.98
2023-05-05T00:03:40.340Z,100888.06
2023-05-05T00:05:47.145Z,100890.09
2023-05-05T00:07:54.171Z,100891.41
2023-05-05T00:10:00.651Z,100887.47
2023-05-05T00:12:08.032Z,100887.2
2023-05-05T00:14:14.972Z,100886.64
2023-05-05T00:16:21.296Z,100886.86
2023-05-05T00:18:28.382Z,100886.73
2023-05-05T00:20:34.662Z,100881.17
2023-05-05T00:22:42.582Z,100880.63
2023-05-05T00:24:51.307Z,100876.72
2023-05-05T00:26:57.679Z,100874.28
2023-05-05T00:29:04.351Z,100883.58
2023-05-05T00:31:13.045Z,100877.05
2023-05-05T00:33:19.448Z,100881.16
2023-05-05T00:35:25.713Z,100878.91
2023-05-05T00:37:32.158Z,100880.9
2023-05-05T00:39:39.426Z,100879.55
2023-05-05T00:41:46.319Z,100886
2023-05-05T00:43:52.780Z,100883.86
2023-05-05T00:45:59.338Z,100886
2023-05-05T00:48:06.997Z,100879.95
2023-05-05T00:50:13.478Z,100879.77
2023-05-05T00:52:20.945Z,100874.25
2023-05-05T00:54:27.309Z,100872.06
2023-05-05T00:56:36.223Z,100874.77
2023-05-05T00:58:42.545Z,100875.55
2023-05-05T01:00:52.849Z,100872.34
2023-05-05T01:02:59.661Z,100877.5
2023-05-05T01:05:06.263Z,100879.91
2023-05-05T01:07:12.660Z,100868.64
2023-05-05T01:09:19.297Z,100872.44
2023-05-05T01:11:26.096Z,100878.38
2023-05-05T01:13:33.111Z,100879.19
2023-05-05T01:15:39.758Z,100880.4
2023-05-05T01:17:46.352Z,100877.91
2023-05-05T01:19:53.421Z,100875.47
2023-05-05T01:22:00.056Z,100870.88
2023-05-05T01:24:06.360Z,100875.73
2023-05-05T01:26:12.874Z,100869.95
2023-05-05T01:28:19.200Z,100871.2
2023-05-05T01:30:25.382Z,100867.47
2023-05-05T01:32:32.453Z,100864.97
2023-05-05T01:34:42.592Z,100864.02
2023-05-05T01:36:52.564Z,100860.59
2023-05-05T01:39:00.638Z,100855.81
2023-05-05T01:41:08.758Z,100849.92
2023-05-05T01:43:15.466Z,100851.03
2023-05-05T01:45:23.122Z,100849.64
2023-05-05T01:47:30.430Z,100850.62
2023-05-05T01:49:38.160Z,100851.27
2023-05-05T01:51:45.259Z,100845.41
2023-05-05T01:53:52.860Z,100845.74
2023-05-05T01:56:00.173Z,100850.13
2023-05-05T01:58:08.601Z,100849.17
2023-05-05T02:00:17.474Z,100852.25
2023-05-05T02:02:24.430Z,100850.73
2023-05-05T02:04:34.767Z,100849.58
2023-05-05T02:06:41.491Z,100850.73
2023-05-05T02:08:47.797Z,100851.57
2023-05-05T02:10:54.296Z,100848.95
2023-05-05T02:13:00.885Z,100849.83
2023-05-05T02:15:24.591Z,100848.56
2023-05-05T02:17:31.550Z,100844.47
2023-05-05T02:19:37.997Z,100845.02
2023-05-05T02:21:44.678Z,100841.06
2023-05-05T02:23:51.640Z,100845.81
2023-05-05T02:26:02.002Z,100853.56
2023-05-05T02:28:08.342Z,100849.59
2023-05-05T02:30:15.415Z,100842.13
2023-05-05T02:32:22.220Z,100842.5
2023-05-05T02:34:32.390Z,100844.23
2023-05-05T02:36:38.402Z,100841.31
2023-05-05T02:38:44.985Z,100840.87
2023-05-05T02:40:51.885Z,100843.63
2023-05-05T02:42:58.444Z,100845.55
2023-05-05T02:45:04.781Z,100844.89
2023-05-05T02:47:31.793Z,100843.59
2023-05-05T02:49:38.604Z,100841.18
2023-05-05T02:51:45.060Z,100843.41
2023-05-05T02:53:51.791Z,100839.9
2023-05-05T02:55:58.527Z,100842.16
2023-05-05T02:58:05.841Z,100840.09
2023-05-05T03:00:12.925Z,100834.61
2023-05-05T03:02:19.501Z,100827.8
2023-05-05T03:04:25.861Z,100828.68
2023-05-05T03:06:32.234Z,100828.66
2023-05-05T03:08:38.740Z,100827.79
2023-05-05T03:10:45.088Z,100829.52
2023-05-05T03:12:51.907Z,100829.27
2023-05-05T03:14:58.899Z,100833.52
2023-05-05T03:17:06.572Z,100833.56
2023-05-05T03:19:12.842Z,100830.58
2023-05-05T03:21:19.503Z,100831.55
2023-05-05T03:23:26.050Z,100833.37
2023-05-05T03:25:32.814Z,100835.38
2023-05-05T03:27:39.568Z,100834.48
2023-05-05T03:29:46.441Z,100829.97
2023-05-05T03:31:53.465Z,100832.46
2023-05-05T03:34:00.298Z,100835.67
2023-05-05T03:36:07.243Z,100834.95
2023-05-05T03:38:14.409Z,100835.42
2023-05-05T03:40:43.367Z,100835.35
2023-05-05T03:42:50.676Z,100837.53
2023-05-05T03:44:58.025Z,100826.14
2023-05-05T03:47:04.989Z,100823.23
2023-05-05T03:49:13.789Z,100827.13
2023-05-05T03:51:20.009Z,100823.48
2023-05-05T03:53:26.278Z,100827.5
2023-05-05T03:55:32.855Z,100829.41
2023-05-05T03:57:39.751Z,100831.45
2023-05-05T03:59:46.306Z,100835.9
2023-05-05T04:01:53.040Z,100833.34
2023-05-05T04:04:03.206Z,100834.72
2023-05-05T04:06:09.697Z,100832.34
2023-05-05T04:08:16.674Z,100832.45
2023-05-05T04:10:23.216Z,100828.05
2023-05-05T04:12:29.907Z,100831.06
2023-05-05T04:14:37.112Z,100833.44
2023-05-05T04:16:43.835Z,100837.23
2023-05-05T04:18:50.324Z,100838.45
2023-05-05T04:20:56.755Z,100836.08
2023-05-05T04:23:03.249Z,100837.66
2023-05-05T04:25:10.052Z,100832.82
2023-05-05T04:27:30.953Z,100835.84
2023-05-05T04:29:38.021Z,100833.89
2023-05-05T04:31:44.425Z,100833.3
2023-05-05T04:33:51.167Z,100830.43
2023-05-05T04:35:57.622Z,100836.63
2023-05-05T04:38:04.580Z,100840.13
2023-05-05T04:40:11.786Z,100838.41
2023-05-05T04:42:18.416Z,100839.11
2023-05-05T04:44:24.580Z,100843.98
2023-05-05T04:46:33.117Z,100849.57
2023-05-05T04:48:40.168Z,100845.06
2023-05-05T04:50:46.890Z,100844.47
2023-05-05T04:52:57.026Z,100849.59
2023-05-05T04:55:03.525Z,100849.4
2023-05-05T04:57:11.415Z,100857.17
2023-05-05T04:59:18.149Z,100854.95
2023-05-05T05:01:25.917Z,100854.27
2023-05-05T05:03:33.433Z,100856.42
2023-05-05T05:05:40.885Z,100859.69
2023-05-05T05:07:47.787Z,100858.34
2023-05-05T05:09:54.394Z,100858.7
2023-05-05T05:12:00.856Z,100856.06
2023-05-05T05:14:07.110Z,100850.41
2023-05-05T05:16:13.886Z,100853.13
2023-05-05T05:18:20.227Z,100852.91
2023-05-05T05:20:28.286Z,100854.73
2023-05-05T05:22:34.573Z,100853.68
2023-05-05T05:24:41.761Z,100863.8
2023-05-05T05:26:51.386Z,100863.59
2023-05-05T05:29:04.320Z,100864.67
2023-05-05T05:31:12.775Z,100861.12
2023-05-05T05:33:19.694Z,100864.45
2023-05-05T05:35:27.292Z,100864.89
2023-05-05T05:37:37.419Z,100863
2023-05-05T05:39:45.396Z,100862.28
2023-05-05T05:41:56.200Z,100862.53
2023-05-05T05:44:03.610Z,100862.23
2023-05-05T05:46:11.891Z,100865.21
2023-05-05T05:48:21.604Z,100863.41
2023-05-05T05:50:29.621Z,100860.19
2023-05-05T05:52:37.131Z,100864.25
2023-05-05T05:54:44.715Z,100861.77
2023-05-05T05:56:51.862Z,100859.09
2023-05-05T05:58:59.158Z,100855.63
2023-05-05T06:01:20.334Z,100855.52
2023-05-05T06:03:28.841Z,100857.53
2023-05-05T06:05:36.190Z,100858.11
2023-05-05T06:07:45.728Z,100858.16
2023-05-05T06:09:54.548Z,100858.43
2023-05-05T06:12:02.829Z,100856.89
2023-05-05T06:14:10.305Z,100859.55
2023-05-05T06:16:17.986Z,100860.73
2023-05-05T06:18:27.403Z,100858.22
2023-05-05T06:20:34.437Z,100858.94
2023-05-05T06:22:41.621Z,100863.02
2023-05-05T06:24:49.801Z,100860.3
2023-05-05T06:26:59.758Z,100864.25
2023-05-05T06:29:13.523Z,100865.23
2023-05-05T06:31:21.240Z,100870.22
2023-05-05T06:33:30.100Z,100868.98
2023-05-05T06:35:37.785Z,100872.47
2023-05-05T06:37:44.465Z,100869.67
2023-05-05T06:39:51.456Z,100871.53
2023-05-05T06:41:58.712Z,100869.56
2023-05-05T06:44:06.659Z,100869.25
2023-05-05T06:46:14.696Z,100868.92
2023-05-05T06:48:22.636Z,100869.3
2023-05-05T06:50:30.866Z,100873.69
2023-05-05T06:52:38.559Z,100875.76
2023-05-05T06:54:45.755Z,100877.62
2023-05-05T06:56:53.490Z,100880.41
2023-05-05T06:59:03.495Z,100878.88
2023-05-05T07:01:13.703Z,100880.59
2023-05-05T07:03:21.205Z,100878.56
2023-05-05T07:05:30.643Z,100874.47
2023-05-05T07:07:37.573Z,100874.12
2023-05-05T07:09:45.690Z,100877.45
2023-05-05T07:11:54.270Z,100874.86
2023-05-05T07:14:03.125Z,100874.84
2023-05-05T07:16:10.145Z,100874.98
2023-05-05T07:18:16.919Z,100875.13
2023-05-05T07:20:25.124Z,100875.55
2023-05-05T07:22:33.134Z,100875.41
2023-05-05T07:24:41.055Z,100874.14
2023-05-05T07:26:49.314Z,100876.57
2023-05-05T07:28:56.919Z,100873.16
2023-05-05T07:31:05.299Z,100874.63
2023-05-05T07:33:13.252Z,100870.18
2023-05-05T07:35:20.759Z,100873
2023-05-05T07:37:28.642Z,100877.05
2023-05-05T07:39:36.381Z,100876.61
2023-05-05T07:41:43.932Z,100874.74
2023-05-05T07:43:51.486Z,100872.14
2023-05-05T07:45:59.420Z,100874.12
2023-05-05T07:48:10.798Z,100871.84
2023-05-05T07:50:19.672Z,100876.83
2023-05-05T07:52:49.796Z,100867.59
2023-05-05T07:55:19.834Z,100869.2
2023-05-05T07:57:29.566Z,100868.5
2023-05-05T07:59:37.563Z,100867.52
2023-05-05T08:01:44.531Z,100869.02
2023-05-05T08:03:53.262Z,100870.45
2023-05-05T08:06:01.787Z,100864.26
2023-05-05T08:08:09.508Z,100866.44
2023-05-05T08:10:18.634Z,100864.02
2023-05-05T08:12:27.433Z,100866
2023-05-05T08:14:34.818Z,100868.92
2023-05-05T08:16:41.666Z,100869.56
2023-05-05T08:18:51.288Z,100868.94
2023-05-05T08:20:58.330Z,100870
2023-05-05T08:23:05.257Z,100873.95
2023-05-05T08:25:13.438Z,100871.2
2023-05-05T08:27:21.533Z,100876.86
2023-05-05T08:29:29.359Z,100882.26
2023-05-05T08:31:37.119Z,100869.52
2023-05-05T08:33:45.011Z,100874.34
2023-05-05T08:35:51.860Z,100873.49
2023-05-05T08:38:01.345Z,100870.77
2023-05-05T08:40:09.035Z,100869.7
2023-05-05T08:42:36.802Z,100866.81
2023-05-05T08:44:45.511Z,100869.23
2023-05-05T08:46:54.325Z,100867.59
2023-05-05T08:49:03.023Z,100869.58
2023-05-05T08:51:11.492Z,100875.28
2023-05-05T08:53:21.105Z,100872.69
2023-05-05T08:55:29.259Z,100870.28
2023-05-05T08:57:36.689Z,100866.03
2023-05-05T08:59:45.217Z,100875.06
2023-05-05T09:01:52.126Z,100871.3
2023-05-05T09:03:59.187Z,100871.44
2023-05-05T09:06:07.160Z,100874.69
2023-05-05T09:08:15.175Z,100870.55
2023-05-05T09:10:23.686Z,100873.02
2023-05-05T09:12:34.116Z,100871.83
2023-05-05T09:15:04.470Z,100872.96
2023-05-05T09:17:13.285Z,100877.59
2023-05-05T09:19:21.334Z,100872.14
2023-05-05T09:21:29.446Z,100868.73
2023-05-05T09:23:37.360Z,100867.81
2023-05-05T09:25:45.209Z,100869.48
2023-05-05T09:27:56.016Z,100866.11
2023-05-05T09:30:04.085Z,100866.09
2023-05-05T09:32:12.290Z,100865.31
2023-05-05T09:34:19.924Z,100864.94
2023-05-05T09:36:27.354Z,100865.63
2023-05-05T09:38:35.778Z,100871.94
2023-05-05T09:40:43.367Z,100873.24
2023-05-05T09:42:51.413Z,100869.41
2023-05-05T09:45:07.422Z,100868.16
2023-05-05T09:47:29.695Z,100866.44
2023-05-05T09:49:39.290Z,100872.58
2023-05-05T09:51:46.700Z,100872.64
2023-05-05T09:53:54.708Z,100862.56
2023-05-05T09:56:02.404Z,100867.14
2023-05-05T09:58:09.595Z,100864.17
2023-05-05T10:00:16.920Z,100862.14
2023-05-05T10:02:25.157Z,100865.06
2023-05-05T10:04:35.781Z,100862.48
2023-05-05T10:06:43.360Z,100859.91
2023-05-05T10:08:51.715Z,100858.17
2023-05-05T10:10:59.146Z,100857.41
2023-05-05T10:13:07.793Z,100856.48
2023-05-05T10:15:16.230Z,100852.55
2023-05-05T10:17:23.595Z,100848.7
2023-05-05T10:19:31.336Z,100850.84
2023-05-05T10:21:42.131Z,100852.05
2023-05-05T10:23:50.008Z,100854.31
2023-05-05T10:25:58.510Z,100846.3
2023-05-05T10:28:06.400Z,100850.02
2023-05-05T10:30:14.568Z,100850.05
2023-05-05T10:32:54.301Z,100849.6
2023-05-05T10:35:38.657Z,100848.38
2023-05-05T10:37:58.903Z,100847.33
2023-05-05T10:40:06.358Z,100849.53
2023-05-05T10:42:15.148Z,100848.81
2023-05-05T10:44:22.663Z,100845.72
2023-05-05T10:46:30.360Z,100844.7
2023-05-05T10:48:37.967Z,100844.45
2023-05-05T10:50:46.429Z,100845.67
2023-05-05T10:52:54.793Z,100846.68
2023-05-05T10:55:02.788Z,100844.67
2023-05-05T10:57:10.954Z,100840.36
2023-05-05T10:59:18.478Z,100834.23
2023-05-05T11:01:26.201Z,100839.92
2023-05-05T11:03:34.321Z,100834.05
2023-05-05T11:05:41.157Z,100829.89
2023-05-05T11:07:48.498Z,100831.72
2023-05-05T11:09:56.146Z,100826.38
2023-05-05T11:12:04.926Z,100828.55
2023-05-05T11:14:12.763Z,100835.89
2023-05-05T11:16:20.019Z,100827.58
2023-05-05T11:18:28.070Z,100826.43
2023-05-05T11:20:35.335Z,100824.18
2023-05-05T11:22:43.480Z,100828.64
2023-05-05T11:24:51.911Z,100825.38
2023-05-05T11:26:59.929Z,100824.66
2023-05-05T11:29:08.086Z,100822.56
2023-05-05T11:31:17.200Z,100825.83
2023-05-05T11:33:25.377Z,100823.3
2023-05-05T11:35:33.380Z,100826.14
2023-05-05T11:37:40.799Z,100824.87
2023-05-05T11:39:48.379Z,100820.45
2023-05-05T11:41:56.025Z,100821.1
2023-05-05T11:44:02.711Z,100817.56
2023-05-05T11:46:10.665Z,100814.56
2023-05-05T11:48:18.287Z,100813.89
2023-05-05T11:50:26.589Z,100822.59
2023-05-05T11:52:34.586Z,100817.76
2023-05-05T11:54:42.371Z,100820.06
2023-05-05T11:56:49.938Z,100820.34
2023-05-05T11:58:57.704Z,100820.64
2023-05-05T12:01:05.904Z,100814.28
2023-05-05T12:03:13.898Z,100817.81
2023-05-05T12:05:22.434Z,100817.41
2023-05-05T12:07:31.158Z,100822.12
2023-05-05T12:09:38.707Z,100823.52
2023-05-05T12:11:45.556Z,100830.5
2023-05-05T12:13:52.108Z,100833.3
2023-05-05T12:15:59.523Z,100831.54
2023-05-05T12:18:11.166Z,100830.11
2023-05-05T12:20:19.156Z,100828.73
2023-05-05T12:22:27.021Z,100829.81
2023-05-05T12:24:36.112Z,100833.49
2023-05-05T12:26:43.565Z,100834.49
2023-05-05T12:28:52.008Z,100837.66
2023-05-05T12:31:00.208Z,100846.41
2023-05-05T12:33:08.158Z,100842.92
2023-05-05T12:35:16.133Z,100841.95
2023-05-05T12:37:23.860Z,100842.56
2023-05-05T12:39:30.926Z,100838.45
2023-05-05T12:41:38.373Z,100833.01
2023-05-05T12:43:46.582Z,100833.37
2023-05-05T12:45:54.216Z,100833.09
2023-05-05T12:48:02.070Z,100835.91
2023-05-05T12:50:10.514Z,100838.44
2023-05-05T12:52:18.208Z,100838.42
2023-05-05T12:54:26.608Z,100840.7
2023-05-05T12:56:34.287Z,100837.64
2023-05-05T12:58:41.940Z,100836.11
2023-05-05T13:00:50.076Z,100836.16
2023-05-05T13:03:01.013Z,100839
2023-05-05T13:05:09.972Z,100834.48
2023-05-05T13:07:18.108Z,100837.27
2023-05-05T13:09:26.585Z,100835.18
2023-05-05T13:11:33.874Z,100833.94
2023-05-05T13:13:41.873Z,100836.18
2023-05-05T13:15:48.963Z,100839.25
2023-05-05T13:17:56.798Z,100838.73
2023-05-05T13:20:05.231Z,100832.03
2023-05-05T13:22:12.873Z,100835.02
2023-05-05T13:24:42.694Z,100835.55
2023-05-05T13:26:58.783Z,100836.97
2023-05-05T13:29:07.025Z,100839.77
2023-05-05T13:31:14.701Z,100832.09
2023-05-05T13:33:22.535Z,100836.17
2023-05-05T13:35:30.906Z,100832.78
2023-05-05T13:37:38.807Z,100830.56
2023-05-05T13:39:46.177Z,100828.09
2023-05-05T13:41:52.885Z,100826.63
2023-05-05T13:44:00.264Z,100834.39
2023-05-05T13:46:21.945Z,100827.59
2023-05-05T13:48:29.538Z,100826.31
2023-05-05T13:50:37.667Z,100821.61
2023-05-05T13:52:45.933Z,100820.06
2023-05-05T13:54:53.894Z,100822.4
2023-05-05T13:57:01.767Z,100821.95
2023-05-05T13:59:09.786Z,100821.98
2023-05-05T14:01:16.960Z,100822.17
2023-05-05T14:03:25.114Z,100822.44
2023-05-05T14:05:32.619Z,100819.16
2023-05-05T14:07:39.818Z,100815.7
2023-05-05T14:09:47.019Z,100819.17
2023-05-05T14:11:54.516Z,100823.91
2023-05-05T14:14:02.666Z,100814.91
2023-05-05T14:16:10.070Z,100820.22
2023-05-05T14:18:18.020Z,100818.91
2023-05-05T14:20:25.789Z,100827.28
2023-05-05T14:22:34.062Z,100820.1
2023-05-05T14:24:43.148Z,100824.77
2023-05-05T14:26:50.957Z,100823.52
2023-05-05T14:28:58.272Z,100823.16
2023-05-05T14:31:06.258Z,100824.22
2023-05-05T14:33:14.102Z,100820.96
2023-05-05T14:35:22.279Z,100823.66
2023-05-05T14:37:30.810Z,100821.34
2023-05-05T14:39:38.414Z,100819.45
2023-05-05T14:41:46.191Z,100822.23
2023-05-05T14:43:53.667Z,100822.54
2023-05-05T14:46:02.740Z,100822
2023-05-05T14:48:12.054Z,100822.34
2023-05-05T14:50:19.549Z,100821.4
2023-05-05T14:52:27.222Z,100836.67
2023-05-05T14:54:35.310Z,100835.22
2023-05-05T14:56:43.033Z,100832.3
2023-05-05T14:58:51.864Z,100834.31
2023-05-05T15:00:59.864Z,100836.81
2023-05-05T15:03:07.278Z,100834.95
2023-05-05T15:05:15.798Z,100835.66
2023-05-05T15:07:22.776Z,100840.03
2023-05-05T15:09:30.183Z,100841.4
2023-05-05T15:11:37.783Z,100843.08
2023-05-05T15:13:46.178Z,100842.48
2023-05-05T15:15:54.090Z,100843.97
2023-05-05T15:18:02.584Z,100852.05
2023-05-05T15:20:10.363Z,100849.81
2023-05-05T15:22:17.925Z,100855.27
2023-05-05T15:24:25.925Z,100855.47
2023-05-05T15:26:33.528Z,100858.53
2023-05-05T15:28:41.827Z,100861.82
2023-05-05T15:30:49.776Z,100865.3
2023-05-05T15:32:57.317Z,100869.74
2023-05-05T15:35:05.390Z,100869.92
2023-05-05T15:37:14.071Z,100873.53
2023-05-05T15:39:22.889Z,100869.73
2023-05-05T15:41:30.904Z,100867.02
2023-05-05T15:43:38.675Z,100868.72
2023-05-05T15:45:46.505Z,100866.02
2023-05-05T15:47:54.940Z,100872.48
2023-05-05T15:50:03.794Z,100874.69
2023-05-05T15:52:12.184Z,100872.64
2023-05-05T15:54:19.366Z,100877.87
2023-05-05T15:56:26.367Z,100879.25
2023-05-05T15:58:33.702Z,100877.7
2023-05-05T16:00:41.799Z,100878.26
2023-05-05T16:02:50.843Z,100874.2
2023-05-05T16:05:01.279Z,100870.39
2023-05-05T16:07:09.118Z,100869.22
2023-05-05T16:09:17.252Z,100873.8
2023-05-05T16:11:25.599Z,100874.34
2023-05-05T16:13:34.448Z,100863.58
2023-05-05T16:15:41.975Z,100871.52
2023-05-05T16:17:50.273Z,100870.5
2023-05-05T16:19:57.913Z,100869.69
2023-05-05T16:22:06.190Z,100874.67
2023-05-05T16:24:14.493Z,100866.41
2023-05-05T16:26:22.361Z,100870.14
2023-05-05T16:28:29.410Z,100874.03
2023-05-05T16:30:36.421Z,100876.03
2023-05-05T16:32:44.144Z,100875.39
2023-05-05T16:34:52.288Z,100870.27
2023-05-05T16:37:01.059Z,100875.2
2023-05-05T16:39:11.788Z,100875.02
2023-05-05T16:41:21.668Z,100873.88
2023-05-05T16:43:29.974Z,100875.34
2023-05-05T16:45:38.770Z,100873.66
2023-05-05T16:47:47.198Z,100879.19
2023-05-05T16:49:56.980Z,100878.3
2023-05-05T16:52:05.176Z,100878.48
2023-05-05T16:54:13.972Z,100876.61
2023-05-05T16:56:21.793Z,100876.91
2023-05-05T16:58:28.982Z,100880.45
2023-05-05T17:00:37.588Z,100880.66
2023-05-05T17:02:45.750Z,100875.5
2023-05-05T17:04:53.608Z,100886
2023-05-05T17:07:01.166Z,100885.34
2023-05-05T17:09:09.721Z,100881.22
2023-05-05T17:11:17.706Z,100880.17
2023-05-05T17:13:25.622Z,100887
2023-05-05T17:15:33.507Z,100888.91
2023-05-05T17:17:44.835Z,100897.23
2023-05-05T17:19:55.800Z,100896.7
2023-05-05T17:22:03.736Z,100897.23
2023-05-05T17:24:13.019Z,100897.98
2023-05-05T17:26:21.185Z,100901.04
2023-05-05T17:28:30.912Z,100898.07
2023-05-05T17:30:38.846Z,100901.97
2023-05-05T17:32:47.650Z,100899.32
2023-05-05T17:34:55.807Z,100895.16
2023-05-05T17:37:04.761Z,100893.17
2023-05-05T17:39:12.825Z,100896.17
2023-05-05T17:41:22.048Z,100901.14
2023-05-05T17:43:30.493Z,100903.39
2023-05-05T17:45:39.645Z,100905.8
2023-05-05T17:47:48.161Z,100909.36
2023-05-05T17:49:56.043Z,100909.27
2023-05-05T17:52:04.674Z,100911.77
2023-05-05T17:54:12.786Z,100909.86
2023-05-05T17:56:20.971Z,100907.45
2023-05-05T17:58:28.931Z,100913.72
2023-05-05T18:00:38.171Z,100916.52
2023-05-05T18:02:46.672Z,100910.77
2023-05-05T18:04:54.883Z,100915.38
2023-05-05T18:07:03.413Z,100915.44
2023-05-05T18:09:13.620Z,100911.13
2023-05-05T18:11:22.564Z,100917.06
2023-05-05T18:13:32.670Z,100919.69
2023-05-05T18:15:40.542Z,100924.48
2023-05-05T18:17:47.710Z,100927.64
2023-05-05T18:19:56.447Z,100934.66
2023-05-05T18:22:04.602Z,100936.05
2023-05-05T18:24:22.001Z,100937.02
2023-05-05T18:26:29.696Z,100937.75
2023-05-05T18:28:38.287Z,100936.36
2023-05-05T18:30:47.475Z,100940.16
2023-05-05T18:32:56.729Z,100937.05
2023-05-05T18:35:05.855Z,100940.02
2023-05-05T18:37:16.040Z,100941.19
2023-05-05T18:39:25.806Z,100942.17
2023-05-05T18:41:36.070Z,100943.55
2023-05-05T18:43:44.432Z,100944.05
2023-05-05T18:45:52.075Z,100950.73
2023-05-05T18:48:00.445Z,100949.5
2023-05-05T18:50:10.961Z,100947.78
2023-05-05T18:52:20.762Z,100949.3
2023-05-05T18:54:28.679Z,100955.91
2023-05-05T18:56:38.201Z,100958.53
2023-05-05T18:58:46.379Z,100958.38
2023-05-05T19:00:55.117Z,100958.26
2023-05-05T19:03:03.675Z,100957.36
2023-05-05T19:05:14.565Z,100961.05
2023-05-05T19:07:36.432Z,100953.95
2023-05-05T19:09:44.606Z,100954.91
2023-05-05T19:11:53.201Z,100947.53
2023-05-05T19:14:01.123Z,100954.05
2023-05-05T19:16:10.130Z,100954.83
2023-05-05T19:18:19.464Z,100959.05
2023-05-05T19:20:31.708Z,100955.94
2023-05-05T19:22:41.489Z,100952
2023-05-05T19:24:49.333Z,100954.46
2023-05-05T19:26:57.900Z,100957.64
2023-05-05T19:29:07.133Z,100954.02
2023-05-05T19:31:15.157Z,100955.2
2023-05-05T19:33:24.315Z,100959.09
2023-05-05T19:35:32.476Z,100955.52
2023-05-05T19:37:41.968Z,100953.02
2023-05-05T19:39:51.689Z,100953.85
2023-05-05T19:42:00.650Z,100952.05
2023-05-05T19:44:08.691Z,100952.59
2023-05-05T19:46:18.097Z,100949.45
2023-05-05T19:48:26.439Z,100948.67
2023-05-05T19:50:34.792Z,100950.08
2023-05-05T19:52:43.848Z,100948.2
2023-05-05T19:54:54.005Z,100948.04
2023-05-05T19:57:02.827Z,100941.98
2023-05-05T19:59:11.178Z,100945.79
2023-05-05T20:01:20.958Z,100947.88
2023-05-05T20:03:31.365Z,100945.15
2023-05-05T20:05:40.524Z,100945.19
2023-05-05T20:07:49.310Z,100950.91
2023-05-05T20:09:58.636Z,100951.88
2023-05-05T20:12:07.978Z,100953.48
2023-05-05T20:14:15.885Z,100954.87
2023-05-05T20:16:25.048Z,100956.56
2023-05-05T20:18:33.233Z,100953.71
2023-05-05T20:20:41.571Z,100957.5
2023-05-05T20:22:49.672Z,100956.03
2023-05-05T20:24:58.972Z,100957.67
2023-05-05T20:27:07.364Z,100953.97
2023-05-05T20:29:16.536Z,100951.55
2023-05-05T20:31:24.765Z,100953.82
2023-05-05T20:33:33.405Z,100955.85
2023-05-05T20:35:41.393Z,100951.53
2023-05-05T20:37:49.477Z,100948.95
2023-05-05T20:39:58.785Z,100946.67
2023-05-05T20:42:07.362Z,100948.47
2023-05-05T20:44:15.994Z,100952.17
2023-05-05T20:46:24.473Z,100952.23
2023-05-05T20:48:34.697Z,100953.41
2023-05-05T20:50:47.494Z,100952.89
2023-05-05T20:52:54.919Z,100952.8
2023-05-05T20:55:04.547Z,100955.02
2023-05-05T20:57:13.038Z,100952.27
2023-05-05T20:59:24.533Z,100954.86
2023-05-05T21:01:33.445Z,100952.8
2023-05-05T21:03:41.475Z,100951.58
2023-05-05T21:05:49.225Z,100948.95
2023-05-05T21:07:58.479Z,100953.83
2023-05-05T21:10:08.522Z,100952.72
2023-05-05T21:12:18.483Z,100950.06
2023-05-05T21:14:27.751Z,100944.23
2023-05-05T21:16:35.047Z,100945.91
2023-05-05T21:18:42.801Z,100944.9
2023-05-05T21:20:50.795Z,100950.34
2023-05-05T21:22:58.137Z,100947.89
2023-05-05T21:25:05.710Z,100947.3
2023-05-05T21:27:15.016Z,100941.54
2023-05-05T21:29:23.213Z,100951.07
2023-05-05T21:31:32.115Z,100949.92
2023-05-05T21:33:42.725Z,100953.34
2023-05-05T21:35:51.710Z,100955.81
2023-05-05T21:37:58.825Z,100954.34
2023-05-05T21:40:06.255Z,100954.09
2023-05-05T21:42:14.667Z,100952.67
2023-05-05T21:44:22.644Z,100964.52
2023-05-05T21:46:30.176Z,100961.7
2023-05-05T21:48:39.310Z,100958.31
2023-05-05T21:50:47.183Z,100959.2
2023-05-05T21:52:55.372Z,100945.38
2023-05-05T21:55:03.371Z,100950.23
2023-05-05T21:57:12.517Z,100952.42
2023-05-05T21:59:21.015Z,100950.03
2023-05-05T22:01:28.538Z,100950.52
2023-05-05T22:03:37.081Z,100954.23
2023-05-05T22:05:45.518Z,100954.31
2023-05-05T22:07:53.667Z,100954.36
2023-05-05T22:10:01.243Z,100954.94
2023-05-05T22:12:09.213Z,100951.47
2023-05-05T22:14:17.279Z,100953.75
2023-05-05T22:16:25.269Z,100953.65
2023-05-05T22:18:33.351Z,100950.88
2023-05-05T22:20:40.898Z,100951.44
2023-05-05T22:22:48.703Z,100955.07
2023-05-05T22:24:56.373Z,100950.65
2023-05-05T22:27:04.553Z,100948.88
2023-05-05T22:29:12.524Z,100945.55
2023-05-05T22:31:21.337Z,100941.15
2023-05-05T22:33:29.484Z,100938.64
2023-05-05T22:35:36.577Z,100938.8
2023-05-05T22:37:44.636Z,100937.03
2023-05-05T22:39:52.928Z,100936.45
2023-05-05T22:42:00.311Z,100941.3
2023-05-05T22:44:08.112Z,100935.26
2023-05-05T22:46:16.487Z,100932.33
2023-05-05T22:48:24.699Z,100940.66
2023-05-05T22:50:31.480Z,100941.86
2023-05-05T22:52:39.296Z,100938.26
2023-05-05T22:54:45.958Z,100937.38
2023-05-05T22:56:52.789Z,100936.75
2023-05-05T22:59:00.103Z,100937.17
2023-05-05T23:01:08.233Z,100935.11
2023-05-05T23:03:16.557Z,100933.83
2023-05-05T23:05:24.073Z,100933.63
2023-05-05T23:07:31.511Z,100933.55
2023-05-05T23:09:41.761Z,100931.69
2023-05-05T23:11:48.944Z,100932.52
2023-05-05T23:13:56.180Z,100928.91
2023-05-05T23:16:03.740Z,100934.41
2023-05-05T23:18:10.902Z,100932.39
2023-05-05T23:20:18.556Z,100935.9
2023-05-05T23:22:25.116Z,100934.88
2023-05-05T23:24:31.906Z,100924.82
2023-05-05T23:26:38.436Z,100926.14
2023-05-05T23:28:44.925Z,100920.23
2023-05-05T23:30:52.880Z,100924.38
2023-05-05T23:32:59.627Z,100920.66
2023-05-05T23:35:06.366Z,100919.41
2023-05-05T23:37:14.719Z,100926.03
2023-05-05T23:39:21.221Z,100925.28
2023-05-05T23:41:28.489Z,100925.81
2023-05-05T23:43:35.337Z,100927.67
2023-05-05T23:45:42.293Z,100928.84
2023-05-05T23:47:49.728Z,100926.73
2023-05-05T23:49:56.134Z,100927.44
2023-05-05T23:52:02.856Z,100932.31
2023-05-05T23:54:09.848Z,100930.95
2023-05-05T23:56:16.746Z,100929.78
2023-05-05T23:58:23.278Z,100932.73
